Time;durP1;ratioP1;P1;durP2;ratioP2;P2;SDS_P1;SDS_P2;PMS_P1;PMS_P2;Temp;Humidity;BMP_temperature;BMP_pressure;BME280_temperature;BME280_humidity;BME280_pressure;Samples;Min_cycle;Max_cycle;Signal;HPM_P1;HPM_P2
2021/08/03 00:00:32;;;;;;;3.17;1.80;;;;;;;;;;5105031;27;20110;-67
2021/08/03 00:03:01;;;;;;;2.30;1.42;;;;;;;;;;5115737;27;20047;-67
2021/08/03 00:05:28;;;;;;;4.35;1.30;;;;;;;;;;5108491;27;20043;-67
2021/08/03 00:08:02;;;;;;;5.10;1.50;;;;;;;;;;5115040;27;20398;-66
2021/08/03 00:10:29;;;;;;;6.20;1.38;;;;;;;;;;5105295;27;20059;-66
2021/08/03 00:12:55;;;;;;;1.25;1.02;;;;;;;;;;5116607;27;20067;-66
2021/08/03 00:15:22;;;;;;;4.32;1.50;;;;;;;;;;5102614;27;20043;-66
2021/08/03 00:17:49;;;;;;;2.65;1.25;;;;;;;;;;5108963;27;20063;-66
2021/08/03 00:20:15;;;;;;;2.90;1.30;;;;;;;;;;5105750;27;20065;-66
2021/08/03 00:22:42;;;;;;;2.42;1.60;;;;;;;;;;5119166;27;20059;-66
2021/08/03 00:25:09;;;;;;;3.10;1.67;;;;;;;;;;5104737;27;20099;-66
2021/08/03 00:27:35;;;;;;;4.95;1.77;;;;;;;;;;5111884;28;20490;-66
2021/08/03 00:30:02;;;;;;;4.22;1.35;;;;;;;;;;5105136;28;24879;-66
2021/08/03 00:32:28;;;;;;;3.33;1.70;;;;;;;;;;5118367;28;20122;-66
2021/08/03 00:34:55;;;;;;;3.17;1.45;;;;;;;;;;5101778;28;20040;-66
2021/08/03 00:37:21;;;;;;;3.35;1.42;;;;;;;;;;5115024;28;20043;-66
2021/08/03 00:39:47;;;;;;;3.33;1.50;;;;;;;;;;5105072;28;20036;-66
2021/08/03 00:42:14;;;;;;;3.13;1.48;;;;;;;;;;5112410;28;20050;-66
2021/08/03 00:44:44;;;;;;;1.85;1.25;;;;;;;;;;5107216;28;20068;-66
2021/08/03 00:47:10;;;;;;;4.18;1.55;;;;;;;;;;5106550;28;20495;-66
2021/08/03 00:49:37;;;;;;;2.50;1.35;;;;;;;;;;5120563;28;20058;-66
2021/08/03 00:52:03;;;;;;;3.25;1.20;;;;;;;;;;5102458;28;20488;-66
2021/08/03 00:54:30;;;;;;;4.38;1.40;;;;;;;;;;5112803;28;20070;-67
2021/08/03 00:56:58;;;;;;;2.67;1.30;;;;;;;;;;5108050;28;20047;-67
2021/08/03 00:59:24;;;;;;;4.50;1.52;;;;;;;;;;5120298;28;20471;-67
2021/08/03 01:01:51;;;;;;;3.10;1.63;;;;;;;;;;5103880;28;20088;-67
2021/08/03 01:04:17;;;;;;;2.85;1.20;;;;;;;;;;5111783;28;20470;-67
2021/08/03 01:06:48;;;;;;;2.90;1.35;;;;;;;;;;5105704;28;20103;-66
2021/08/03 01:09:14;;;;;;;3.22;1.10;;;;;;;;;;5118015;28;20039;-66
2021/08/03 01:11:48;;;;;;;2.33;1.30;;;;;;;;;;5107479;27;20039;-66
2021/08/03 01:14:19;;;;;;;6.05;1.80;;;;;;;;;;5112438;27;20043;-66
2021/08/03 01:16:45;;;;;;;3.25;1.60;;;;;;;;;;5114424;27;20042;-66
2021/08/03 01:19:27;;;;;;;4.78;1.83;;;;;;;;;;5123670;27;20547;-66
2021/08/03 01:22:01;;;;;;;2.85;1.67;;;;;;;;;;5106174;27;20051;-67
2021/08/03 01:24:46;;;;;;;4.05;1.73;;;;;;;;;;5113552;27;20042;-67
2021/08/03 01:27:12;;;;;;;;;;;;;;;;;;5110456;27;20042;-67
2021/08/03 01:29:38;;;;;;;3.63;1.58;;;;;;;;;;5115222;27;19935;-67
2021/08/03 01:32:07;;;;;;;3.05;1.45;;;;;;;;;;5109093;27;20135;-67
2021/08/03 01:34:37;;;;;;;2.90;1.50;;;;;;;;;;5114911;27;20044;-67
2021/08/03 01:37:04;;;;;;;3.25;1.48;;;;;;;;;;5118327;27;20327;-67
2021/08/03 01:39:42;;;;;;;3.90;1.70;;;;;;;;;;5110067;27;20054;-67
2021/08/03 01:42:09;;;;;;;3.78;1.25;;;;;;;;;;5113715;27;20045;-67
2021/08/03 01:44:36;;;;;;;1.95;1.27;;;;;;;;;;5104144;27;20063;-67
2021/08/03 01:47:03;;;;;;;3.47;1.58;;;;;;;;;;5119469;27;20043;-67
2021/08/03 01:49:34;;;;;;;2.60;1.50;;;;;;;;;;5113709;27;20043;-67
2021/08/03 01:52:01;;;;;;;3.00;1.30;;;;;;;;;;5115445;27;20142;-67
2021/08/03 01:54:28;;;;;;;2.85;1.90;;;;;;;;;;5108625;27;20059;-67
2021/08/03 01:56:54;;;;;;;2.10;1.42;;;;;;;;;;5120367;27;20035;-67
2021/08/03 01:59:22;;;;;;;3.38;1.60;;;;;;;;;;5106671;27;20474;-67
2021/08/03 02:01:48;;;;;;;2.63;1.45;;;;;;;;;;5111471;27;20039;-67
2021/08/03 02:04:16;;;;;;;3.70;1.27;;;;;;;;;;5110110;27;20459;-66
2021/08/03 02:06:42;;;;;;;5.00;1.52;;;;;;;;;;5116509;27;20047;-66
2021/08/03 02:09:09;;;;;;;4.70;1.15;;;;;;;;;;5105299;27;20044;-67
2021/08/03 02:11:36;;;;;;;3.00;1.02;;;;;;;;;;5114242;27;20536;-66
2021/08/03 02:14:02;;;;;;;2.22;1.35;;;;;;;;;;5114333;27;20052;-66
2021/08/03 02:16:29;;;;;;;2.22;1.40;;;;;;;;;;5114775;27;20224;-66
2021/08/03 02:18:55;;;;;;;3.90;1.40;;;;;;;;;;5104970;27;20105;-66
2021/08/03 02:21:23;;;;;;;2.58;1.40;;;;;;;;;;5114997;27;20027;-66
2021/08/03 02:23:50;;;;;;;2.95;1.40;;;;;;;;;;5113196;27;20039;-66
2021/08/03 02:26:16;;;;;;;2.10;1.60;;;;;;;;;;5107186;27;20067;-66
2021/08/03 02:28:43;;;;;;;1.95;1.25;;;;;;;;;;5110217;27;20051;-66
2021/08/03 02:31:29;;;;;;;3.17;1.23;;;;;;;;;;5110081;27;20035;-66
2021/08/03 02:33:57;;;;;;;2.55;1.05;;;;;;;;;;5113253;27;20084;-66
2021/08/03 02:36:28;;;;;;;3.65;1.40;;;;;;;;;;5110541;27;20039;-67
2021/08/03 02:38:56;;;;;;;3.22;1.23;;;;;;;;;;5110409;27;20036;-66
2021/08/03 02:41:25;;;;;;;2.10;0.90;;;;;;;;;;5103240;27;20044;-66
2021/08/03 02:43:52;;;;;;;3.88;1.30;;;;;;;;;;5118219;27;20054;-66
2021/08/03 02:46:22;;;;;;;3.85;1.30;;;;;;;;;;5109893;27;20392;-66
2021/08/03 02:49:00;;;;;;;1.70;1.17;;;;;;;;;;5105912;27;20032;-66
2021/08/03 02:51:28;;;;;;;4.25;1.33;;;;;;;;;;5104471;27;20056;-66
2021/08/03 02:53:56;;;;;;;1.83;1.20;;;;;;;;;;5117707;27;20047;-66
2021/08/03 02:56:23;;;;;;;4.65;1.73;;;;;;;;;;5106614;27;20039;-66
2021/08/03 02:58:49;;;;;;;2.22;1.35;;;;;;;;;;5109067;27;20497;-66
2021/08/03 03:01:17;;;;;;;2.92;1.08;;;;;;;;;;5109962;27;20091;-66
2021/08/03 03:03:49;;;;;;;3.50;1.40;;;;;;;;;;5117004;27;20510;-66
2021/08/03 03:06:15;;;;;;;2.17;0.95;;;;;;;;;;5104158;27;20086;-66
2021/08/03 03:08:43;;;;;;;3.20;1.20;;;;;;;;;;5110530;27;20134;-66
2021/08/03 03:11:11;;;;;;;3.20;1.20;;;;;;;;;;5109984;27;20058;-66
2021/08/03 03:13:40;;;;;;;3.03;1.10;;;;;;;;;;5118390;27;20048;-66
2021/08/03 03:16:07;;;;;;;3.30;1.20;;;;;;;;;;5106707;27;20381;-67
2021/08/03 03:18:34;;;;;;;2.83;1.35;;;;;;;;;;5113247;27;20114;-67
2021/08/03 03:21:04;;;;;;;2.17;1.60;;;;;;;;;;5117205;27;20047;-67
2021/08/03 03:23:38;;;;;;;4.75;2.05;;;;;;;;;;5109705;27;20071;-67
2021/08/03 03:26:04;;;;;;;4.05;1.65;;;;;;;;;;5112430;27;20036;-67
2021/08/03 03:28:33;;;;;;;2.30;1.65;;;;;;;;;;5104289;27;20043;-66
2021/08/03 03:31:00;;;;;;;3.83;2.30;;;;;;;;;;5117839;27;20035;-66
2021/08/03 03:33:27;;;;;;;4.55;1.58;;;;;;;;;;5109356;27;20449;-66
2021/08/03 03:35:55;;;;;;;6.20;2.35;;;;;;;;;;5109992;27;20032;-66
2021/08/03 03:38:23;;;;;;;2.90;1.67;;;;;;;;;;5109988;27;20142;-66
2021/08/03 03:40:50;;;;;;;3.53;2.20;;;;;;;;;;5117899;27;20042;-66
2021/08/03 03:43:20;;;;;;;3.28;1.50;;;;;;;;;;5106423;27;20061;-66
2021/08/03 03:45:49;;;;;;;2.83;1.52;;;;;;;;;;5111930;27;20047;-66
2021/08/03 03:48:18;;;;;;;2.15;1.77;;;;;;;;;;5107353;27;20043;-66
2021/08/03 03:50:46;;;;;;;5.80;2.10;;;;;;;;;;5115110;27;20180;-66
2021/08/03 03:53:15;;;;;;;2.20;1.38;;;;;;;;;;5101524;27;20039;-66
2021/08/03 03:55:46;;;;;;;6.40;1.60;;;;;;;;;;5094657;28;20112;-66
2021/08/03 03:58:12;;;;;;;2.67;1.58;;;;;;;;;;5108236;27;20044;-66
2021/08/03 04:00:39;;;;;;;2.80;1.48;;;;;;;;;;5117648;27;20031;-66
2021/08/03 04:03:06;;;;;;;2.30;1.65;;;;;;;;;;5107070;27;20051;-66
2021/08/03 04:05:35;;;;;;;2.88;1.95;;;;;;;;;;5113597;27;20043;-66
2021/08/03 04:08:01;;;;;;;2.25;1.35;;;;;;;;;;5114398;27;20039;-66
2021/08/03 04:10:34;;;;;;;2.65;1.52;;;;;;;;;;5109533;27;20063;-67
2021/08/03 04:13:01;;;;;;;4.35;1.67;;;;;;;;;;5110714;27;20066;-67
2021/08/03 04:15:28;;;;;;;3.13;1.48;;;;;;;;;;5111713;27;20097;-66
2021/08/03 04:17:54;;;;;;;2.72;1.55;;;;;;;;;;5118254;27;20399;-67
2021/08/03 04:20:20;;;;;;;2.90;1.48;;;;;;;;;;5107662;27;20259;-66
2021/08/03 04:22:47;;;;;;;3.38;1.92;;;;;;;;;;5114808;27;20118;-66
2021/08/03 04:25:13;;;;;;;4.10;1.70;;;;;;;;;;5105126;27;20040;-66
2021/08/03 04:27:39;;;;;;;3.25;1.67;;;;;;;;;;5115794;27;20076;-66
2021/08/03 04:30:06;;;;;;;4.22;1.98;;;;;;;;;;5076022;28;20040;-66
2021/08/03 04:32:37;;;;;;;4.90;1.95;;;;;;;;;;5112503;28;20062;-66
2021/08/03 04:35:04;;;;;;;1.80;1.40;;;;;;;;;;5112974;28;20051;-66
2021/08/03 04:37:42;;;;;;;3.85;1.77;;;;;;;;;;5111163;28;20126;-66
2021/08/03 04:40:08;;;;;;;3.30;1.70;;;;;;;;;;5107985;28;20090;-66
2021/08/03 04:42:35;;;;;;;3.53;1.52;;;;;;;;;;5113655;28;20394;-66
2021/08/03 04:45:01;;;;;;;3.40;1.75;;;;;;;;;;5111056;28;20402;-66
2021/08/03 04:47:28;;;;;;;4.07;1.55;;;;;;;;;;5113069;27;20077;-66
2021/08/03 04:49:54;;;;;;;2.75;1.80;;;;;;;;;;5109116;27;20495;-66
2021/08/03 04:52:20;;;;;;;3.47;1.80;;;;;;;;;;5115040;27;20340;-66
2021/08/03 04:54:46;;;;;;;3.85;1.83;;;;;;;;;;5123753;27;20402;-66
2021/08/03 04:57:12;;;;;;;3.00;1.90;;;;;;;;;;5106943;27;20043;-66
2021/08/03 04:59:38;;;;;;;6.18;2.10;;;;;;;;;;5117764;27;20097;-66
2021/08/03 05:02:04;;;;;;;5.63;1.65;;;;;;;;;;5095361;28;20181;-67
2021/08/03 05:04:37;;;;;;;3.45;2.22;;;;;;;;;;5119959;27;20055;-67
2021/08/03 05:07:04;;;;;;;4.25;2.13;;;;;;;;;;5107363;27;20042;-67
2021/08/03 05:09:30;;;;;;;1.85;1.55;;;;;;;;;;5115937;27;20039;-67
2021/08/03 05:11:57;;;;;;;3.13;1.77;;;;;;;;;;5114917;27;20181;-67
2021/08/03 05:14:23;;;;;;;4.65;2.20;;;;;;;;;;5114798;27;20083;-67
2021/08/03 05:16:49;;;;;;;2.45;1.63;;;;;;;;;;5109462;27;20035;-67
2021/08/03 05:19:16;;;;;;;3.42;1.55;;;;;;;;;;5104440;27;20081;-67
2021/08/03 05:21:42;;;;;;;4.70;1.80;;;;;;;;;;5116517;27;20032;-67
2021/08/03 05:24:08;;;;;;;6.30;1.73;;;;;;;;;;5113819;27;20085;-67
2021/08/03 05:26:34;;;;;;;3.25;1.50;;;;;;;;;;5107089;27;20050;-67
2021/08/03 05:29:00;;;;;;;2.80;1.80;;;;;;;;;;5114046;27;20042;-67
2021/08/03 05:31:26;;;;;;;3.58;1.95;;;;;;;;;;5111577;27;20118;-67
2021/08/03 05:33:52;;;;;;;5.47;2.03;;;;;;;;;;5110785;27;20067;-67
2021/08/03 05:36:18;;;;;;;2.88;1.90;;;;;;;;;;5120873;27;20059;-67
2021/08/03 05:38:45;;;;;;;3.88;2.10;;;;;;;;;;5108662;27;20475;-66
2021/08/03 05:41:11;;;;;;;2.90;1.80;;;;;;;;;;5087606;27;20048;-66
2021/08/03 05:43:37;;;;;;;4.72;1.73;;;;;;;;;;5108527;27;20067;-66
2021/08/03 05:46:03;;;;;;;4.45;2.05;;;;;;;;;;5119404;27;20465;-67
2021/08/03 05:48:29;;;;;;;3.28;1.90;;;;;;;;;;5110857;27;20044;-67
2021/08/03 05:50:55;;;;;;;5.03;1.92;;;;;;;;;;5113187;27;20042;-67
2021/08/03 05:53:22;;;;;;;3.92;1.80;;;;;;;;;;5094531;28;20181;-67
2021/08/03 05:55:48;;;;;;;3.70;1.90;;;;;;;;;;5113920;27;20047;-68
2021/08/03 05:58:15;;;;;;;4.65;1.60;;;;;;;;;;5108859;27;20043;-68
2021/08/03 06:00:43;;;;;;;2.85;1.67;;;;;;;;;;5112569;27;20093;-68
2021/08/03 06:03:10;;;;;;;2.65;1.95;;;;;;;;;;5112982;27;20043;-67
2021/08/03 06:05:37;;;;;;;3.25;1.95;;;;;;;;;;5114550;27;20051;-68
2021/08/03 06:08:08;;;;;;;2.72;1.50;;;;;;;;;;5108732;27;20537;-68
2021/08/03 06:10:34;;;;;;;4.97;1.70;;;;;;;;;;5096719;27;20032;-68
2021/08/03 06:13:02;;;;;;;2.70;1.45;;;;;;;;;;5113261;27;20405;-68
2021/08/03 06:15:29;;;;;;;2.38;1.55;;;;;;;;;;5120367;27;20074;-68
2021/08/03 06:18:08;;;;;;;4.65;1.42;;;;;;;;;;5110704;27;20092;-68
2021/08/03 06:20:37;;;;;;;3.15;1.35;;;;;;;;;;5113191;27;20039;-68
2021/08/03 06:23:04;;;;;;;2.50;1.15;;;;;;;;;;5120369;27;20587;-68
2021/08/03 06:25:30;;;;;;;2.42;1.08;;;;;;;;;;5111342;27;20070;-68
2021/08/03 06:27:57;;;;;;;2.97;1.00;;;;;;;;;;5113622;27;20489;-68
2021/08/03 06:30:23;;;;;;;2.83;1.10;;;;;;;;;;5103583;27;20064;-68
2021/08/03 06:32:51;;;;;;;3.42;1.48;;;;;;;;;;5119146;27;20040;-68
2021/08/03 06:35:18;;;;;;;3.80;1.33;;;;;;;;;;5110359;27;20535;-68
2021/08/03 06:37:45;;;;;;;2.03;1.00;;;;;;;;;;5117647;27;20043;-68
2021/08/03 06:40:11;;;;;;;2.80;1.10;;;;;;;;;;5109807;27;20044;-68
2021/08/03 06:42:37;;;;;;;2.88;0.93;;;;;;;;;;5118371;27;20558;-68
2021/08/03 06:45:05;;;;;;;1.80;0.90;;;;;;;;;;5104196;27;20054;-68
2021/08/03 06:47:54;;;;;;;4.30;0.80;;;;;;;;;;5112655;27;20052;-68
2021/08/03 06:50:22;;;;;;;3.53;2.17;;;;;;;;;;5060279;28;20129;-68
2021/08/03 06:52:50;;;;;;;3.72;1.23;;;;;;;;;;5114716;27;20092;-68
2021/08/03 06:55:16;;;;;;;3.42;1.23;;;;;;;;;;5101330;27;20057;-68
2021/08/03 06:57:47;;;;;;;1.98;0.93;;;;;;;;;;5115835;27;20027;-68
2021/08/03 07:00:13;;;;;;;2.40;1.15;;;;;;;;;;5110799;27;20406;-68
2021/08/03 07:02:48;;;;;;;1.77;1.00;;;;;;;;;;5116711;27;20082;-68
2021/08/03 07:05:24;;;;;;;3.80;1.05;;;;;;;;;;5105159;27;20034;-68
2021/08/03 07:07:55;;;;;;;2.58;1.20;;;;;;;;;;5102921;27;20036;-68
2021/08/03 07:10:21;;;;;;;1.73;1.05;;;;;;;;;;5108132;27;20039;-68
2021/08/03 07:12:48;;;;;;;3.33;1.00;;;;;;;;;;5118381;27;20061;-68
2021/08/03 07:15:14;;;;;;;2.13;0.90;;;;;;;;;;5110713;27;20040;-69
2021/08/03 07:17:41;;;;;;;2.20;0.80;;;;;;;;;;5110113;27;20054;-68
2021/08/03 07:20:09;;;;;;;2.50;0.60;;;;;;;;;;5116745;27;20043;-68
2021/08/03 07:22:36;;;;;;;1.92;0.60;;;;;;;;;;5109190;27;20065;-68
2021/08/03 07:25:03;;;;;;;1.48;0.68;;;;;;;;;;5108159;27;20413;-68
2021/08/03 07:27:29;;;;;;;4.03;0.60;;;;;;;;;;5108766;27;20375;-69
2021/08/03 07:29:56;;;;;;;1.77;0.65;;;;;;;;;;5118306;27;20047;-69
2021/08/03 07:32:22;;;;;;;2.75;0.47;;;;;;;;;;5104686;27;20344;-69
2021/08/03 07:34:48;;;;;;;3.67;0.60;;;;;;;;;;5110276;27;20043;-69
2021/08/03 07:37:14;;;;;;;1.65;0.60;;;;;;;;;;5113378;27;20055;-69
2021/08/03 07:39:40;;;;;;;1.15;0.32;;;;;;;;;;5116047;27;20130;-69
2021/08/03 07:42:08;;;;;;;2.80;0.30;;;;;;;;;;5110515;27;20521;-69
2021/08/03 07:44:34;;;;;;;1.83;0.43;;;;;;;;;;5112843;27;20043;-69
2021/08/03 07:47:01;;;;;;;3.47;0.60;;;;;;;;;;5108170;27;20031;-70
2021/08/03 07:49:27;;;;;;;2.38;0.68;;;;;;;;;;5118845;27;20046;-70
2021/08/03 07:51:53;;;;;;;2.40;0.50;;;;;;;;;;5105219;27;20548;-70
2021/08/03 07:54:19;;;;;;;2.45;0.50;;;;;;;;;;5113615;27;20103;-70
2021/08/03 07:56:45;;;;;;;2.45;0.63;;;;;;;;;;5089548;27;20051;-70
2021/08/03 07:59:12;;;;;;;1.00;0.40;;;;;;;;;;5104362;27;20046;-70
2021/08/03 08:01:38;;;;;;;3.30;0.68;;;;;;;;;;5112627;27;20542;-70
2021/08/03 08:04:04;;;;;;;1.77;0.40;;;;;;;;;;5109430;27;20036;-70
2021/08/03 08:06:30;;;;;;;2.22;0.40;;;;;;;;;;5116167;27;20062;-70
2021/08/03 08:08:57;;;;;;;2.25;0.40;;;;;;;;;;5104311;27;20549;-70
2021/08/03 08:11:24;;;;;;;1.88;0.60;;;;;;;;;;5113589;27;20395;-70
2021/08/03 08:13:50;;;;;;;2.40;0.40;;;;;;;;;;5107557;27;20047;-70
2021/08/03 08:16:16;;;;;;;1.95;0.45;;;;;;;;;;5115810;27;20082;-70
2021/08/03 08:18:42;;;;;;;2.50;0.40;;;;;;;;;;5104388;27;20476;-70
2021/08/03 08:21:08;;;;;;;1.90;0.50;;;;;;;;;;5115446;27;20109;-70
2021/08/03 08:23:35;;;;;;;1.90;0.40;;;;;;;;;;5109354;27;20043;-70
2021/08/03 08:26:04;;;;;;;1.77;0.50;;;;;;;;;;5110047;27;20032;-70
2021/08/03 08:28:30;;;;;;;3.40;0.52;;;;;;;;;;5104139;27;20087;-70
2021/08/03 08:30:56;;;;;;;1.95;0.30;;;;;;;;;;5116545;27;20040;-70
2021/08/03 08:33:23;;;;;;;1.55;0.30;;;;;;;;;;5110294;28;20050;-70
2021/08/03 08:35:49;;;;;;;1.50;0.30;;;;;;;;;;5109014;28;20084;-70
2021/08/03 08:38:15;;;;;;;1.63;0.30;;;;;;;;;;5113771;28;20027;-70
2021/08/03 08:40:42;;;;;;;2.38;0.35;;;;;;;;;;5108761;28;20422;-71
2021/08/03 08:43:12;;;;;;;1.10;0.30;;;;;;;;;;5117095;28;20865;-71
2021/08/03 08:45:38;;;;;;;2.63;0.30;;;;;;;;;;5108023;28;20036;-71
2021/08/03 08:48:06;;;;;;;1.27;0.32;;;;;;;;;;5116008;28;20035;-71
2021/08/03 08:50:32;;;;;;;1.45;0.30;;;;;;;;;;5111695;28;20035;-71
2021/08/03 08:52:58;;;;;;;0.98;0.20;;;;;;;;;;5115343;28;20614;-69
2021/08/03 08:55:25;;;;;;;2.97;0.30;;;;;;;;;;5107290;28;20122;-69
2021/08/03 08:57:51;;;;;;;3.22;0.40;;;;;;;;;;5119584;28;20040;-69
2021/08/03 09:00:19;;;;;;;1.42;0.20;;;;;;;;;;5106194;28;20108;-68
2021/08/03 09:02:53;;;;;;;1.75;0.22;;;;;;;;;;5109710;28;20035;-70
2021/08/03 09:05:37;;;;;;;1.67;0.40;;;;;;;;;;5106044;28;20087;-70
2021/08/03 09:08:04;;;;;;;1.38;0.30;;;;;;;;;;5112279;28;20369;-71
2021/08/03 09:10:48;;;;;;;1.38;0.30;;;;;;;;;;5110018;28;20668;-71
2021/08/03 09:13:15;;;;;;;1.55;0.20;;;;;;;;;;5084787;28;20066;-71
2021/08/03 09:15:42;;;;;;;1.08;0.38;;;;;;;;;;5104756;28;20043;-71
2021/08/03 09:18:08;;;;;;;1.77;0.30;;;;;;;;;;5113049;28;20516;-71
2021/08/03 09:20:35;;;;;;;1.95;0.20;;;;;;;;;;5106898;28;20032;-71
2021/08/03 09:23:01;;;;;;;1.42;0.30;;;;;;;;;;5114226;28;20043;-71
2021/08/03 09:25:27;;;;;;;1.65;0.30;;;;;;;;;;5107570;28;21071;-71
2021/08/03 09:28:01;;;;;;;1.88;0.40;;;;;;;;;;5109686;28;20476;-71
2021/08/03 09:30:27;;;;;;;;;;;;;;;;;;5112393;28;20391;-71
2021/08/03 09:32:53;;;;;;;1.45;0.40;;;;;;;;;;5102214;27;19998;-71
2021/08/03 09:35:21;;;;;;;1.45;0.40;;;;;;;;;;5116097;27;20088;-71
2021/08/03 09:37:48;;;;;;;2.85;0.40;;;;;;;;;;5112072;27;20071;-69
2021/08/03 09:40:18;;;;;;;1.35;0.40;;;;;;;;;;5115965;27;20082;-68
2021/08/03 09:42:44;;;;;;;1.95;0.32;;;;;;;;;;5109348;27;20110;-68
2021/08/03 09:45:10;;;;;;;2.47;0.50;;;;;;;;;;5099684;27;20048;-68
2021/08/03 09:47:37;;;;;;;1.02;0.30;;;;;;;;;;5112924;27;20096;-68
2021/08/03 09:50:11;;;;;;;2.67;0.38;;;;;;;;;;5115124;27;20042;-68
2021/08/03 09:52:37;;;;;;;;;;;;;;;;;;5109088;27;20038;-68
2021/08/03 09:55:07;;;;;;;1.02;0.40;;;;;;;;;;5114267;27;19915;-70
2021/08/03 09:57:33;;;;;;;0.95;0.35;;;;;;;;;;5104108;27;20468;-70
2021/08/03 09:59:59;;;;;;;0.90;0.35;;;;;;;;;;5114782;27;20548;-70
2021/08/03 10:02:26;;;;;;;3.08;0.80;;;;;;;;;;5110791;27;20035;-70
2021/08/03 10:04:53;;;;;;;2.55;0.30;;;;;;;;;;5113022;27;20073;-69
2021/08/03 10:07:20;;;;;;;1.13;0.22;;;;;;;;;;5109736;27;20092;-69
2021/08/03 10:09:48;;;;;;;1.80;0.30;;;;;;;;;;5113274;27;20043;-67
2021/08/03 10:12:15;;;;;;;2.33;0.50;;;;;;;;;;5111713;27;20483;-69
2021/08/03 10:14:41;;;;;;;1.75;0.47;;;;;;;;;;5116071;27;20043;-69
2021/08/03 10:17:11;;;;;;;2.88;0.50;;;;;;;;;;5112090;27;20114;-69
2021/08/03 10:19:38;;;;;;;1.63;0.30;;;;;;;;;;5110407;27;20110;-69
2021/08/03 10:22:08;;;;;;;2.40;0.43;;;;;;;;;;5117352;27;20043;-69
2021/08/03 10:24:41;;;;;;;3.00;0.30;;;;;;;;;;5110839;27;20043;-69
2021/08/03 10:27:14;;;;;;;2.30;0.38;;;;;;;;;;5113913;27;20047;-69
2021/08/03 10:29:46;;;;;;;2.87;0.57;;;;;;;;;;5106615;27;20499;-69
2021/08/03 10:32:30;;;;;;;3.63;0.60;;;;;;;;;;5115358;27;20521;-69
2021/08/03 10:34:57;;;;;;;1.58;0.47;;;;;;;;;;5113734;27;20463;-68
2021/08/03 10:37:24;;;;;;;2.80;0.40;;;;;;;;;;5111838;27;20035;-68
2021/08/03 10:39:52;;;;;;;1.98;0.50;;;;;;;;;;5077714;28;20424;-69
2021/08/03 10:42:18;;;;;;;1.30;0.40;;;;;;;;;;5117494;27;20055;-69
2021/08/03 10:44:47;;;;;;;3.30;0.50;;;;;;;;;;5114805;27;20035;-68
2021/08/03 10:47:31;;;;;;;1.65;0.47;;;;;;;;;;5111852;27;20454;-68
2021/08/03 10:49:59;;;;;;;2.58;0.50;;;;;;;;;;5100352;27;20031;-68
2021/08/03 10:52:44;;;;;;;1.92;0.35;;;;;;;;;;5115735;27;20039;-68
2021/08/03 10:55:29;;;;;;;1.88;0.57;;;;;;;;;;5111466;27;20039;-68
2021/08/03 10:58:13;;;;;;;2.45;0.47;;;;;;;;;;5117864;27;20027;-68
2021/08/03 11:00:46;;;;;;;2.75;0.60;;;;;;;;;;5107021;27;20039;-68
2021/08/03 11:03:36;;;;;;;2.92;0.60;;;;;;;;;;5113532;27;20472;-68
2021/08/03 11:06:11;;;;;;;1.67;0.70;;;;;;;;;;5095781;27;20151;-68
2021/08/03 11:08:44;;;;;;;0.63;0.30;;;;;;;;;;5112825;27;20428;-68
2021/08/03 11:11:14;;;;;;;1.90;0.70;;;;;;;;;;5106916;27;20403;-68
2021/08/03 11:13:45;;;;;;;3.13;0.73;;;;;;;;;;5111474;27;20051;-68
2021/08/03 11:16:13;;;;;;;1.95;0.40;;;;;;;;;;5105863;27;20464;-68
2021/08/03 11:18:40;;;;;;;1.23;0.40;;;;;;;;;;5114944;27;20045;-68
2021/08/03 11:21:07;;;;;;;1.50;0.40;;;;;;;;;;5109062;27;20431;-68
2021/08/03 11:23:51;;;;;;;2.00;0.52;;;;;;;;;;5112417;27;20462;-68
2021/08/03 11:26:21;;;;;;;1.48;0.70;;;;;;;;;;5109984;27;20438;-68
2021/08/03 11:29:07;;;;;;;1.75;0.70;;;;;;;;;;5115899;27;20036;-68
2021/08/03 11:31:40;;;;;;;3.10;0.60;;;;;;;;;;5107899;27;20084;-68
2021/08/03 11:34:06;;;;;;;2.08;0.60;;;;;;;;;;5114404;27;20042;-68
2021/08/03 11:36:33;;;;;;;1.42;0.60;;;;;;;;;;5106228;27;20073;-68
2021/08/03 11:39:00;;;;;;;2.25;0.47;;;;;;;;;;5115548;27;20077;-69
2021/08/03 11:41:26;;;;;;;1.42;0.40;;;;;;;;;;5100691;27;20170;-69
2021/08/03 11:43:53;;;;;;;2.33;0.57;;;;;;;;;;5112238;27;20055;-69
2021/08/03 11:46:25;;;;;;;2.97;0.40;;;;;;;;;;5113786;27;20045;-69
2021/08/03 11:49:02;;;;;;;1.53;0.57;;;;;;;;;;5117508;27;20042;-70
2021/08/03 11:51:34;;;;;;;1.08;0.40;;;;;;;;;;5085166;28;20044;-70
2021/08/03 11:54:30;;;;;;;2.60;0.55;;;;;;;;;;5114479;27;20505;-70
2021/08/03 11:56:56;;;;;;;3.15;0.45;;;;;;;;;;5087349;27;20179;-70
2021/08/03 11:59:30;;;;;;;2.42;0.65;;;;;;;;;;5113989;27;20046;-69
2021/08/03 12:01:56;;;;;;;1.17;0.50;;;;;;;;;;5098224;28;20031;-69
2021/08/03 12:04:22;;;;;;;2.28;0.57;;;;;;;;;;5111792;27;20059;-69
2021/08/03 12:06:50;;;;;;;0.73;0.40;;;;;;;;;;5102875;27;20063;-69
2021/08/03 12:09:17;;;;;;;2.28;0.50;;;;;;;;;;5117451;27;20060;-69
2021/08/03 12:11:45;;;;;;;1.50;0.40;;;;;;;;;;5104974;27;20078;-69
2021/08/03 12:14:17;;;;;;;1.67;0.50;;;;;;;;;;5110470;27;20035;-69
2021/08/03 12:16:43;;;;;;;1.38;0.50;;;;;;;;;;5110350;27;20409;-69
2021/08/03 12:19:28;;;;;;;2.20;0.70;;;;;;;;;;5095328;27;20054;-69
2021/08/03 12:21:54;;;;;;;1.75;0.40;;;;;;;;;;5112967;27;20074;-69
2021/08/03 12:24:21;;;;;;;0.98;0.60;;;;;;;;;;5107685;27;20031;-69
2021/08/03 12:26:47;;;;;;;1.38;0.40;;;;;;;;;;5112131;27;20123;-69
2021/08/03 12:29:13;;;;;;;1.55;0.50;;;;;;;;;;5103610;27;20066;-70
2021/08/03 12:31:42;;;;;;;1.67;0.60;;;;;;;;;;5113385;28;20035;-70
2021/08/03 12:34:11;;;;;;;1.52;0.60;;;;;;;;;;5107022;27;20078;-69
2021/08/03 12:36:44;;;;;;;1.95;0.35;;;;;;;;;;5118264;28;20031;-69
2021/08/03 12:39:18;;;;;;;1.75;0.40;;;;;;;;;;5105612;28;20452;-69
2021/08/03 12:41:44;;;;;;;;;;;;;;;;;;5111818;28;20049;-69
2021/08/03 12:44:26;;;;;;;1.67;0.70;;;;;;;;;;5109928;28;19916;-69
2021/08/03 12:46:52;;;;;;;3.08;0.43;;;;;;;;;;5111056;28;20027;-69
2021/08/03 12:49:30;;;;;;;3.22;0.70;;;;;;;;;;5109708;28;20063;-69
2021/08/03 12:52:05;;;;;;;2.95;0.77;;;;;;;;;;5110357;28;20039;-69
2021/08/03 12:54:32;;;;;;;1.67;0.65;;;;;;;;;;5103552;28;20066;-69
2021/08/03 12:56:59;;;;;;;2.30;0.60;;;;;;;;;;5081210;28;20065;-69
2021/08/03 12:59:32;;;;;;;2.35;0.60;;;;;;;;;;5102674;28;20447;-69
2021/08/03 13:01:58;;;;;;;2.90;0.83;;;;;;;;;;5110794;28;20051;-69
2021/08/03 13:04:25;;;;;;;2.05;0.73;;;;;;;;;;5106117;28;20289;-69
2021/08/03 13:06:54;;;;;;;2.58;0.80;;;;;;;;;;5119986;28;20048;-69
2021/08/03 13:09:20;;;;;;;1.88;0.50;;;;;;;;;;5112497;27;20043;-69
2021/08/03 13:11:47;;;;;;;1.77;0.68;;;;;;;;;;5086084;27;20421;-69
2021/08/03 13:14:13;;;;;;;1.92;0.90;;;;;;;;;;5113162;27;20069;-68
2021/08/03 13:16:40;;;;;;;1.00;0.50;;;;;;;;;;5116618;27;20050;-68
2021/08/03 13:19:06;;;;;;;3.30;0.52;;;;;;;;;;5115522;27;20122;-68
2021/08/03 13:21:32;;;;;;;1.55;0.47;;;;;;;;;;5106704;27;20109;-69
2021/08/03 13:23:58;;;;;;;1.48;0.70;;;;;;;;;;5118567;27;20128;-69
2021/08/03 13:26:24;;;;;;;3.03;0.80;;;;;;;;;;5116148;27;20046;-69
2021/08/03 13:28:50;;;;;;;1.52;0.55;;;;;;;;;;5117473;27;20039;-69
2021/08/03 13:31:16;;;;;;;1.58;0.60;;;;;;;;;;5108680;27;20110;-69
2021/08/03 13:33:42;;;;;;;1.70;0.50;;;;;;;;;;5120985;27;20067;-69
2021/08/03 13:36:08;;;;;;;1.35;0.52;;;;;;;;;;5111373;27;20117;-69
2021/08/03 13:38:35;;;;;;;3.78;0.70;;;;;;;;;;5112413;27;20399;-69
2021/08/03 13:41:01;;;;;;;2.50;0.75;;;;;;;;;;5114269;27;20036;-69
2021/08/03 13:43:27;;;;;;;2.42;0.50;;;;;;;;;;5119893;27;20046;-69
2021/08/03 13:45:53;;;;;;;0.98;0.57;;;;;;;;;;5106051;27;20036;-70
2021/08/03 13:48:19;;;;;;;3.22;0.60;;;;;;;;;;5116142;27;20043;-69
2021/08/03 13:50:47;;;;;;;2.50;0.70;;;;;;;;;;5112876;27;20028;-69
2021/08/03 13:53:13;;;;;;;2.08;0.68;;;;;;;;;;5116591;27;20031;-69
2021/08/03 13:55:40;;;;;;;2.17;0.60;;;;;;;;;;5114414;27;20502;-69
2021/08/03 13:58:06;;;;;;;1.45;0.35;;;;;;;;;;5109884;27;20089;-69
2021/08/03 14:00:32;;;;;;;1.80;0.50;;;;;;;;;;5119395;27;20040;-69
2021/08/03 14:02:58;;;;;;;2.63;0.50;;;;;;;;;;5111060;27;20470;-69
2021/08/03 14:05:24;;;;;;;2.75;0.60;;;;;;;;;;5113952;27;20154;-69
2021/08/03 14:07:50;;;;;;;2.25;0.68;;;;;;;;;;5111784;27;20032;-69
2021/08/03 14:10:16;;;;;;;2.30;0.50;;;;;;;;;;5121647;27;20043;-69
2021/08/03 14:12:43;;;;;;;1.83;0.70;;;;;;;;;;5107613;27;20035;-69
2021/08/03 14:15:09;;;;;;;1.27;0.50;;;;;;;;;;5113142;27;20039;-69
2021/08/03 14:17:36;;;;;;;3.33;0.70;;;;;;;;;;5113580;27;20451;-69
2021/08/03 14:20:02;;;;;;;0.95;0.38;;;;;;;;;;5115149;27;20572;-69
2021/08/03 14:22:29;;;;;;;1.45;0.45;;;;;;;;;;5106700;27;20035;-69
2021/08/03 14:24:55;;;;;;;3.67;0.70;;;;;;;;;;5114775;27;20455;-69
2021/08/03 14:27:21;;;;;;;2.72;0.70;;;;;;;;;;5115448;27;20071;-69
2021/08/03 14:29:48;;;;;;;1.17;0.60;;;;;;;;;;5113187;27;20793;-69
2021/08/03 14:32:14;;;;;;;3.40;0.80;;;;;;;;;;5108600;27;20042;-68
2021/08/03 14:34:40;;;;;;;1.65;0.77;;;;;;;;;;5120690;27;20573;-68
2021/08/03 14:37:06;;;;;;;3.17;0.73;;;;;;;;;;5120159;27;20039;-68
2021/08/03 14:39:32;;;;;;;2.05;0.70;;;;;;;;;;5104177;27;20047;-68
2021/08/03 14:41:59;;;;;;;1.08;0.55;;;;;;;;;;5112663;27;20032;-68
2021/08/03 14:44:25;;;;;;;1.83;0.70;;;;;;;;;;5086896;27;20108;-68
2021/08/03 14:46:51;;;;;;;1.45;0.50;;;;;;;;;;5119603;27;20031;-68
2021/08/03 14:49:17;;;;;;;1.88;0.60;;;;;;;;;;5108234;27;20036;-69